KSJC/SJC METAR and TAF weather

Enter ICAO airport designator
Station Type Date Time Source
KSJC METAR 2024/04/23 04:53 UTC NOAA

KSJC 230453Z 17009KT 10SM CLR 15/07 A2987 RMK AO2 SLP115 T01500072


Station Type Date Time Source
KSJC Decoded METAR 2024/04/23 04:53 UTC NOAA

SAN JOSE INTERNATIONAL AIRPORT, CA, United States (KSJC) 37-22N 121-55W 25M
Apr 23, 2024 - 12:53 AM EDT / 2024.04.23 0453 UTC
Wind: from the S (170 degrees) at 10 MPH (9 KT):0
Visibility: 10 mile(s):0
Sky conditions: clear
Temperature: 59.0 F (15.0 C)
Dew Point: 45.0 F (7.2 C)
Relative Humidity: 59%
Pressure (altimeter): 29.87 in. Hg (1011 hPa)
ob: KSJC 230453Z 17009KT 10SM CLR 15/07 A2987 RMK AO2 SLP115 T01500072
cycle: 5

Station Type Date Time Source
KSJC TAF 2024/04/23 03:51 UTC NOAA